Terminal Aerodrome Forecast
Issued by NWS

Current Version | Previous Version | Text Only | Print | Product List | Glossary Off
Versions: 1 2 3 4 5 6 7 8 9 10 11 12 13 14 15 16 17 18

000
FTUS41 KPBZ 222339
TAFHLG
TAF
KHLG 222339Z 2300/2324 25009KT P6SM FEW050 SCT250
     FM230900 26004KT 3SM BR SCT150
     FM231400 28003KT P6SM SCT035=

USA.gov is the U.S. government's official web portal to all federal, state and local government web resources and services.